createdAt,value
2022-10-23T00:16:23.042Z,100351.47
2022-10-23T00:18:49.629Z,100361.63
2022-10-23T00:21:17.574Z,100357.84
2022-10-23T00:23:45.138Z,100351.81
2022-10-23T00:27:07.771Z,100364.72
2022-10-23T10:34:17.857Z,100562.13
2022-10-23T10:36:53.036Z,100571.84
2022-10-23T10:39:56.431Z,100568.69
2022-10-23T10:42:38.191Z,100560.50
2022-10-23T10:45:30.596Z,100558.75
2022-10-23T10:49:09.297Z,100554.19
2022-10-23T10:52:48.980Z,100540.72
2022-10-23T10:55:30.896Z,100540.00
2022-10-23T10:58:08.612Z,100537.56
2022-10-23T11:00:35.651Z,100528.91
2022-10-23T11:03:37.621Z,100524.41
2022-10-23T15:13:18.755Z,100299.56
2022-10-23T15:15:46.312Z,100292.69
2022-10-23T15:18:12.915Z,100282.97
2022-10-23T16:55:28.184Z,100325.69
2022-10-23T16:57:54.766Z,100343.09
2022-10-23T17:00:22.667Z,100344.75
2022-10-23T17:02:49.351Z,100344.56
2022-10-23T17:24:54.361Z,100338.91
2022-10-23T17:27:21.301Z,100347.38
2022-10-23T17:29:49.294Z,100334.03
2022-10-23T17:32:15.919Z,100337.94
2022-10-23T17:34:42.535Z,100336.31
2022-10-23T17:37:56.367Z,100350.78
2022-10-23T18:00:13.440Z,100305.69
2022-10-23T18:12:15.147Z,100312.88
2022-10-23T18:17:23.170Z,100317.91
2022-10-23T18:20:05.862Z,100320.53
2022-10-23T18:25:21.409Z,100313.19
2022-10-23T18:27:48.296Z,100316.44
2022-10-23T18:30:15.176Z,100318.06
2022-10-23T18:35:17.157Z,100323.88
2022-10-23T18:37:43.931Z,100317.34
2022-10-23T18:40:12.196Z,100308.41
2022-10-23T18:42:38.743Z,100318.34
2022-10-23T18:45:05.688Z,100307.75
2022-10-23T18:47:32.273Z,100303.78
2022-10-23T18:49:58.842Z,100312.13
2022-10-23T18:52:25.397Z,100311.34
2022-10-23T18:54:51.930Z,100304.38
2022-10-23T18:57:21.066Z,100313.12
2022-10-23T19:02:23.019Z,100314.03
2022-10-23T19:04:49.739Z,100315.25
2022-10-23T19:07:16.426Z,100306.00
2022-10-23T19:14:54.966Z,100299.84
2022-10-23T19:17:27.834Z,100305.81
2022-10-23T19:19:57.032Z,100308.75
2022-10-23T19:34:07.191Z,100318.03
2022-10-23T19:36:52.564Z,100319.13
